NCAR-RAP Real-Time Weather Data

Output produced by METARs form (10 April 2020  07:19 UTC)
found at http://weather.rap.ucar.edu/surface/
 
KBWI 100654Z 27016G30KT 10SM CLR 07/M06 A2955 RMK AO2 PK WND 27030/0649 SLP005 T00671061